Lake Alice, Washington
Current Conditions -  °F | °C
As of 12:53 AM on Sunday 26 Oct 2014 (Local Time) from KRNT Reporting Station
Scattered Clouds Scattered Clouds  
Wind Chill: 52°   Ceiling: Unl
Heat Index: 52°   Visibility: 10mi
Dew Point: 47°   Wind: 14mph
Humidity: 83%   Direction: 170°S
Pressure: 29.77"   Gusts: 22mph
Location:  47.6631°N, 121.723°W
Report Text: KRNT 260753Z AUTO 17012G19KT 10SM SCT026 11/08 A2977 RMK AO2 SLP087 T01110083 401780100
Loading
Personal Weather Stations






























Interactive Weather Map
Tropical Storm Tracking
New forecast layout! Learn more

10-Day Weather Forecast

Advertisements
Track Severe Weather on mobile